Time;durP1;ratioP1;P1;durP2;ratioP2;P2;SDS_P1;SDS_P2;PMS_P1;PMS_P2;Temp;Humidity;BMP_temperature;BMP_pressure;BME280_temperature;BME280_humidity;BME280_pressure;Samples;Min_cycle;Max_cycle;Signal;HPM_P1;HPM_P2
2023/07/30 00:02:22;;;;;;;5.18;2.13;;;;;;;;;;7304241;19;141482;-78
2023/07/30 00:07:50;;;;;;;2.25;1.50;;;;;;;;;;7305726;19;143629;-79
2023/07/30 00:10:17;;;;;;;3.92;1.58;;;;;;;;;;7301182;19;140567;-76
2023/07/30 00:12:44;;;;;;;3.58;1.52;;;;;;;;;;7301173;19;140925;-77
2023/07/30 00:18:28;;;;;;;5.85;1.98;;;;;;;;;;7303777;19;141492;-79
2023/07/30 00:20:57;;;;;;;2.00;1.40;;;;;;;;;;7305218;19;140635;-79
2023/07/30 00:23:24;;;;;;;3.88;1.50;;;;;;;;;;7303536;19;140585;-80
2023/07/30 00:25:53;;;;;;;2.15;1.45;;;;;;;;;;7302853;19;140529;-80
2023/07/30 00:31:32;;;;;;;3.58;1.45;;;;;;;;;;7304556;19;140692;-80
2023/07/30 00:33:59;;;;;;;4.30;1.83;;;;;;;;;;7303287;19;140543;-79
2023/07/30 00:36:26;;;;;;;2.42;1.67;;;;;;;;;;7300559;19;141227;-80
2023/07/30 00:38:53;;;;;;;3.63;1.73;;;;;;;;;;7304607;19;140725;-80
2023/07/30 00:41:29;;;;;;;2.13;1.45;;;;;;;;;;7298190;19;142584;-80
2023/07/30 00:43:58;;;;;;;4.43;2.00;;;;;;;;;;7301346;19;142054;-80
2023/07/30 00:46:26;;;;;;;3.45;1.60;;;;;;;;;;7304572;19;141352;-80
2023/07/30 00:48:53;;;;;;;2.30;1.50;;;;;;;;;;7303251;19;140551;-80
2023/07/30 00:51:20;;;;;;;4.93;1.70;;;;;;;;;;7304864;19;140459;-81
2023/07/30 00:53:48;;;;;;;1.63;1.40;;;;;;;;;;7305150;19;141152;-79
2023/07/30 00:56:16;;;;;;;2.40;1.60;;;;;;;;;;7303415;19;140889;-80
2023/07/30 00:58:44;;;;;;;1.55;1.40;;;;;;;;;;7303070;19;140603;-79
2023/07/30 01:01:26;;;;;;;4.97;1.88;;;;;;;;;;7303761;19;140414;-79
2023/07/30 01:04:13;;;;;;;2.10;1.58;;;;;;;;;;7302388;19;141060;31
2023/07/30 01:07:01;;;;;;;1.95;1.50;;;;;;;;;;7302973;19;141001;-81
2023/07/30 01:09:28;;;;;;;2.38;1.42;;;;;;;;;;7304284;19;140439;-81
2023/07/30 01:17:43;;;;;;;2.05;1.50;;;;;;;;;;7303186;19;142247;-78
2023/07/30 01:22:59;;;;;;;2.72;1.60;;;;;;;;;;7298548;19;142217;-78
2023/07/30 01:25:30;;;;;;;1.55;1.33;;;;;;;;;;7310676;19;142204;-80
2023/07/30 01:31:01;;;;;;;1.98;1.50;;;;;;;;;;7303990;19;143519;-81
2023/07/30 01:33:32;;;;;;;6.85;2.30;;;;;;;;;;7307106;19;140423;-80
2023/07/30 01:36:01;;;;;;;2.08;1.40;;;;;;;;;;7307511;19;141602;-81
2023/07/30 01:39:12;;;;;;;10.25;3.05;;;;;;;;;;7305900;19;143253;-81
2023/07/30 01:42:03;;;;;;;1.42;1.13;;;;;;;;;;7310149;19;141067;-81
2023/07/30 01:50:36;;;;;;;6.30;2.17;;;;;;;;;;7303872;19;141141;-78
2023/07/30 01:53:03;;;;;;;2.80;1.35;;;;;;;;;;7310591;19;140452;-78
2023/07/30 01:55:31;;;;;;;1.17;1.08;;;;;;;;;;7308613;19;140470;-78
2023/07/30 01:57:58;;;;;;;2.40;1.33;;;;;;;;;;7308864;19;140404;-79
2023/07/30 02:00:25;;;;;;;2.03;1.30;;;;;;;;;;7309634;19;142570;-78
2023/07/30 02:02:52;;;;;;;2.00;1.27;;;;;;;;;;7309912;19;140751;-78
2023/07/30 02:05:19;;;;;;;2.42;1.42;;;;;;;;;;7309760;19;140612;-78
2023/07/30 02:07:47;;;;;;;1.83;1.40;;;;;;;;;;7308974;19;140938;-79
2023/07/30 02:10:14;;;;;;;2.30;1.40;;;;;;;;;;7307471;19;141850;-79
2023/07/30 02:12:41;;;;;;;1.63;1.20;;;;;;;;;;7307621;19;141166;-79
2023/07/30 02:15:08;;;;;;;1.27;1.13;;;;;;;;;;7307680;19;140771;-79
2023/07/30 02:17:35;;;;;;;1.90;1.38;;;;;;;;;;7308505;19;141710;-79
2023/07/30 02:20:02;;;;;;;1.92;1.10;;;;;;;;;;7308301;19;140771;-79
2023/07/30 02:22:29;;;;;;;2.05;1.10;;;;;;;;;;7308608;19;140451;-79
2023/07/30 02:24:59;;;;;;;1.13;1.02;;;;;;;;;;7309072;19;140894;-78
2023/07/30 02:27:26;;;;;;;1.70;1.00;;;;;;;;;;7308220;19;141048;-77
2023/07/30 02:29:53;;;;;;;1.42;1.20;;;;;;;;;;7307168;19;142532;-77
2023/07/30 02:32:20;;;;;;;1.60;1.20;;;;;;;;;;7308345;19;140612;-78
2023/07/30 02:34:47;;;;;;;2.03;1.15;;;;;;;;;;7308476;19;140512;-78
2023/07/30 02:37:14;;;;;;;2.72;1.30;;;;;;;;;;7306312;19;141569;-77
2023/07/30 02:39:41;;;;;;;1.63;1.17;;;;;;;;;;7307759;19;142019;-78
2023/07/30 02:42:08;;;;;;;3.15;1.33;;;;;;;;;;7308885;19;140472;-80
2023/07/30 02:44:35;;;;;;;1.55;1.20;;;;;;;;;;7309145;19;140823;-78
2023/07/30 02:47:02;;;;;;;1.20;0.93;;;;;;;;;;7307047;19;140987;-77
2023/07/30 02:49:29;;;;;;;1.73;1.30;;;;;;;;;;7307900;19;142239;-77
2023/07/30 02:51:56;;;;;;;1.15;1.08;;;;;;;;;;7306588;19;140819;-76
2023/07/30 02:54:23;;;;;;;1.52;1.00;;;;;;;;;;7304633;19;140502;-78
2023/07/30 02:56:50;;;;;;;1.65;1.20;;;;;;;;;;7306719;19;140748;-76
2023/07/30 02:59:17;;;;;;;1.98;1.40;;;;;;;;;;7306466;19;142888;-77
2023/07/30 03:01:44;;;;;;;2.05;1.30;;;;;;;;;;7307864;19;140569;-76
2023/07/30 03:04:11;;;;;;;1.40;1.20;;;;;;;;;;7307445;19;140512;-77
2023/07/30 03:06:38;;;;;;;1.20;1.10;;;;;;;;;;7305299;19;140584;-77
2023/07/30 03:09:05;;;;;;;1.48;1.00;;;;;;;;;;7304690;19;142079;-78
2023/07/30 03:11:32;;;;;;;1.77;1.20;;;;;;;;;;7306164;19;140811;-77
2023/07/30 03:14:00;;;;;;;1.80;1.10;;;;;;;;;;7305234;19;140893;-78
2023/07/30 03:16:27;;;;;;;1.85;1.20;;;;;;;;;;7304853;19;141749;-79
2023/07/30 03:18:54;;;;;;;1.58;1.17;;;;;;;;;;7306791;19;142656;-78
2023/07/30 03:21:21;;;;;;;1.77;1.30;;;;;;;;;;7305446;19;140453;-78
2023/07/30 03:23:48;;;;;;;1.42;1.10;;;;;;;;;;7306624;19;140588;-78
2023/07/30 03:29:18;;;;;;;2.10;1.30;;;;;;;;;;7304409;19;140763;-80
2023/07/30 03:31:45;;;;;;;1.40;1.30;;;;;;;;;;7306138;19;140415;-82
2023/07/30 03:34:12;;;;;;;1.77;1.27;;;;;;;;;;7307310;19;140578;-81
2023/07/30 03:36:39;;;;;;;1.70;1.27;;;;;;;;;;7307598;19;140490;-80
2023/07/30 03:39:07;;;;;;;2.58;1.27;;;;;;;;;;7305882;19;142185;-81
2023/07/30 03:41:35;;;;;;;2.25;1.38;;;;;;;;;;7306966;19;140729;-80
2023/07/30 03:44:02;;;;;;;2.05;1.30;;;;;;;;;;7307964;19;140424;-81
2023/07/30 03:46:29;;;;;;;3.17;1.05;;;;;;;;;;7305255;19;142128;-80
2023/07/30 03:48:56;;;;;;;2.10;1.77;;;;;;;;;;7303438;19;141837;-81
2023/07/30 03:51:24;;;;;;;1.88;1.20;;;;;;;;;;7306687;19;140475;-81
2023/07/30 03:53:51;;;;;;;2.10;1.30;;;;;;;;;;7306061;19;140436;-80
2023/07/30 03:56:18;;;;;;;2.38;1.23;;;;;;;;;;7306034;19;140580;-81
2023/07/30 03:58:45;;;;;;;1.10;1.10;;;;;;;;;;7306512;19;142933;-80
2023/07/30 04:01:12;;;;;;;1.42;1.08;;;;;;;;;;7306451;19;140604;-82
2023/07/30 04:03:39;;;;;;;1.60;1.10;;;;;;;;;;7305975;19;140708;-80
2023/07/30 04:06:06;;;;;;;1.80;1.23;;;;;;;;;;7305930;19;141648;-81
2023/07/30 04:08:35;;;;;;;3.17;1.48;;;;;;;;;;7305409;19;141253;-80
2023/07/30 04:11:02;;;;;;;1.75;1.02;;;;;;;;;;7304357;19;140567;-80
2023/07/30 04:13:29;;;;;;;1.95;1.10;;;;;;;;;;7306071;19;140703;-80
2023/07/30 04:15:56;;;;;;;2.20;1.05;;;;;;;;;;7307418;19;141371;-80
2023/07/30 04:18:24;;;;;;;2.97;1.13;;;;;;;;;;7308264;19;140881;-80
2023/07/30 04:20:50;;;;;;;1.90;1.10;;;;;;;;;;7307256;19;140676;-79
2023/07/30 04:23:18;;;;;;;3.83;1.30;;;;;;;;;;7306309;19;140400;-78
2023/07/30 04:25:45;;;;;;;1.20;1.10;;;;;;;;;;7306743;19;142094;-79
2023/07/30 04:28:12;;;;;;;1.83;0.93;;;;;;;;;;7305570;19;141222;-78
2023/07/30 04:30:39;;;;;;;1.23;1.10;;;;;;;;;;7304300;19;140496;-80
2023/07/30 04:33:06;;;;;;;1.55;1.00;;;;;;;;;;7303401;19;140501;-80
2023/07/30 04:35:33;;;;;;;2.70;1.20;;;;;;;;;;7304470;19;141347;-80
2023/07/30 04:38:00;;;;;;;1.98;1.40;;;;;;;;;;7304212;19;140999;-80
2023/07/30 04:40:28;;;;;;;1.50;1.10;;;;;;;;;;7305972;19;141065;-80
2023/07/30 04:42:55;;;;;;;1.38;1.20;;;;;;;;;;7305103;19;140577;-79
2023/07/30 04:45:22;;;;;;;2.63;0.98;;;;;;;;;;7303848;19;140993;-79
2023/07/30 04:47:49;;;;;;;1.63;0.95;;;;;;;;;;7304889;19;142568;-79
2023/07/30 04:50:16;;;;;;;2.85;1.25;;;;;;;;;;7305440;19;140474;-79
2023/07/30 04:52:43;;;;;;;2.75;1.10;;;;;;;;;;7303423;19;140779;-80
2023/07/30 04:55:11;;;;;;;1.83;1.05;;;;;;;;;;7303076;19;140448;-80
2023/07/30 04:57:38;;;;;;;1.42;1.00;;;;;;;;;;7304542;19;141501;-77
2023/07/30 05:00:05;;;;;;;1.38;1.10;;;;;;;;;;7311899;19;140727;-77
2023/07/30 05:02:32;;;;;;;1.35;1.00;;;;;;;;;;7311086;19;140776;-76
2023/07/30 05:05:00;;;;;;;2.03;1.13;;;;;;;;;;7312151;19;141562;-77
2023/07/30 05:07:27;;;;;;;1.80;1.13;;;;;;;;;;7311038;19;142048;-77
2023/07/30 05:09:54;;;;;;;3.03;1.30;;;;;;;;;;7311639;19;140663;-80
2023/07/30 05:12:22;;;;;;;2.03;1.10;;;;;;;;;;7312131;19;140482;-80
2023/07/30 05:14:49;;;;;;;2.85;1.40;;;;;;;;;;7310527;19;141259;-81
2023/07/30 05:17:16;;;;;;;1.73;1.30;;;;;;;;;;7310559;19;143221;-79
2023/07/30 05:19:43;;;;;;;3.40;1.40;;;;;;;;;;7312010;19;140594;-78
2023/07/30 05:22:10;;;;;;;1.70;1.15;;;;;;;;;;7311205;19;140323;-77
2023/07/30 05:24:37;;;;;;;2.47;1.30;;;;;;;;;;7311750;19;141245;-81
2023/07/30 05:27:04;;;;;;;2.67;1.23;;;;;;;;;;7310935;19;142578;-80
2023/07/30 05:29:32;;;;;;;2.03;1.20;;;;;;;;;;7310793;19;140629;-80
2023/07/30 05:31:59;;;;;;;2.15;1.30;;;;;;;;;;7310611;19;140557;-79
2023/07/30 05:34:27;;;;;;;1.13;1.02;;;;;;;;;;7310645;19;140792;-78
2023/07/30 05:36:54;;;;;;;2.95;1.10;;;;;;;;;;7308765;19;141882;-78
2023/07/30 05:39:21;;;;;;;3.35;1.17;;;;;;;;;;7309637;19;140588;-80
2023/07/30 05:41:48;;;;;;;1.90;1.10;;;;;;;;;;7311112;19;140733;-81
2023/07/30 05:44:15;;;;;;;1.25;1.10;;;;;;;;;;7310906;19;140851;-81
2023/07/30 05:46:43;;;;;;;1.92;1.30;;;;;;;;;;7310864;19;142688;-81
2023/07/30 05:49:10;;;;;;;1.30;1.15;;;;;;;;;;7310923;19;140887;-80
2023/07/30 05:51:37;;;;;;;1.27;1.13;;;;;;;;;;7311570;19;140551;-81
2023/07/30 05:54:05;;;;;;;2.00;1.30;;;;;;;;;;7309628;19;141194;-81
2023/07/30 05:56:32;;;;;;;1.20;1.10;;;;;;;;;;7308132;19;143718;-83
2023/07/30 05:58:59;;;;;;;2.75;1.40;;;;;;;;;;7307584;19;140745;-79
2023/07/30 06:01:26;;;;;;;1.27;1.17;;;;;;;;;;7309629;19;140430;-80
2023/07/30 06:03:53;;;;;;;2.42;1.30;;;;;;;;;;7308453;19;141248;-79
2023/07/30 06:06:26;;;;;;;1.55;1.35;;;;;;;;;;7309619;19;142689;-80
2023/07/30 06:08:54;;;;;;;3.25;1.10;;;;;;;;;;7309619;19;141366;-79
2023/07/30 06:11:21;;;;;;;1.85;1.20;;;;;;;;;;7309274;19;140777;-80
2023/07/30 06:13:48;;;;;;;2.60;1.48;;;;;;;;;;7309065;19;141723;-79
2023/07/30 06:16:16;;;;;;;2.75;1.30;;;;;;;;;;7309058;19;142557;-79
2023/07/30 06:18:43;;;;;;;1.40;1.10;;;;;;;;;;7309819;19;140514;-79
2023/07/30 06:21:10;;;;;;;2.03;1.35;;;;;;;;;;7307995;19;140687;-79
2023/07/30 06:23:38;;;;;;;2.47;1.20;;;;;;;;;;7307405;19;141126;-79
2023/07/30 06:26:04;;;;;;;2.08;1.50;;;;;;;;;;7308815;19;142173;-80
2023/07/30 06:28:31;;;;;;;2.55;1.27;;;;;;;;;;7308824;19;140517;-80
2023/07/30 06:31:02;;;;;;;1.70;1.05;;;;;;;;;;7309519;19;140459;-82
2023/07/30 06:33:29;;;;;;;3.20;1.40;;;;;;;;;;7308869;19;140898;-79
2023/07/30 06:35:59;;;;;;;1.45;1.00;;;;;;;;;;7309360;19;141081;-81
2023/07/30 06:38:26;;;;;;;3.22;1.63;;;;;;;;;;7308031;19;140398;-81
2023/07/30 06:40:53;;;;;;;1.65;1.38;;;;;;;;;;7308825;19;140609;-82
2023/07/30 06:43:20;;;;;;;2.28;1.20;;;;;;;;;;7308490;19;140828;-80
2023/07/30 06:45:47;;;;;;;1.25;1.10;;;;;;;;;;7306694;19;142312;-80
2023/07/30 06:48:17;;;;;;;1.63;1.40;;;;;;;;;;7308606;19;140566;-81
2023/07/30 06:50:44;;;;;;;1.20;1.10;;;;;;;;;;7308624;19;140637;-81
2023/07/30 06:53:11;;;;;;;1.95;1.35;;;;;;;;;;7306636;19;141824;-81
2023/07/30 06:55:38;;;;;;;3.13;1.50;;;;;;;;;;7307489;19;142406;-80
2023/07/30 06:58:05;;;;;;;1.98;1.50;;;;;;;;;;7308149;19;140374;-81
2023/07/30 07:00:32;;;;;;;2.47;1.55;;;;;;;;;;7308547;19;140685;-81
2023/07/30 07:03:00;;;;;;;2.38;1.42;;;;;;;;;;7306349;19;141383;-81
2023/07/30 07:05:27;;;;;;;2.38;1.30;;;;;;;;;;7307513;19;141819;-80
2023/07/30 07:07:54;;;;;;;3.03;1.60;;;;;;;;;;7306018;19;140702;-81
2023/07/30 07:10:21;;;;;;;2.00;1.58;;;;;;;;;;7307824;19;140757;-82
2023/07/30 07:12:49;;;;;;;3.05;1.60;;;;;;;;;;7307647;19;142334;-80
2023/07/30 07:15:16;;;;;;;2.42;1.33;;;;;;;;;;7307740;19;142703;-79
2023/07/30 07:17:43;;;;;;;1.73;1.58;;;;;;;;;;7306692;19;140658;-79
2023/07/30 07:20:11;;;;;;;2.50;1.50;;;;;;;;;;7304417;19;140578;-77
2023/07/30 07:22:38;;;;;;;1.58;1.48;;;;;;;;;;7303997;19;142176;-74
2023/07/30 07:25:05;;;;;;;2.45;1.65;;;;;;;;;;7301933;19;140819;-75
2023/07/30 07:27:32;;;;;;;2.30;1.80;;;;;;;;;;7303084;19;140597;-75
2023/07/30 07:29:59;;;;;;;2.55;1.40;;;;;;;;;;7302216;19;140643;-74
2023/07/30 07:32:27;;;;;;;1.75;1.27;;;;;;;;;;7302717;19;142003;-74
2023/07/30 07:34:54;;;;;;;2.63;1.88;;;;;;;;;;7300805;19;142370;-73
2023/07/30 07:37:21;;;;;;;2.47;2.08;;;;;;;;;;7301279;19;141928;-73
2023/07/30 07:39:48;;;;;;;2.88;2.00;;;;;;;;;;7300769;19;140716;-73
2023/07/30 07:42:15;;;;;;;2.35;2.00;;;;;;;;;;7302589;19;140899;-74
2023/07/30 07:44:45;;;;;;;2.85;2.10;;;;;;;;;;7301548;19;141920;-75
2023/07/30 07:47:12;;;;;;;;;;;;;;;;;;7302491;19;140488;-73
2023/07/30 07:49:40;;;;;;;3.35;2.00;;;;;;;;;;7304509;19;142103;-79
2023/07/30 07:52:07;;;;;;;4.97;2.10;;;;;;;;;;7306230;19;140861;-87
2023/07/30 07:54:35;;;;;;;6.90;2.80;;;;;;;;;;7302505;19;141937;-79
2023/07/30 07:57:02;;;;;;;5.82;3.38;;;;;;;;;;7307772;19;140799;-81
2023/07/30 07:59:29;;;;;;;6.47;3.80;;;;;;;;;;7309843;19;140463;-83
2023/07/30 08:01:57;;;;;;;4.93;3.03;;;;;;;;;;7308708;19;140821;-81
2023/07/30 08:04:24;;;;;;;5.65;3.35;;;;;;;;;;7309597;19;140428;-80
2023/07/30 08:06:52;;;;;;;7.97;3.95;;;;;;;;;;7311368;19;140793;-80
2023/07/30 08:09:20;;;;;;;7.38;3.88;;;;;;;;;;7309120;19;140517;-79
2023/07/30 08:11:47;;;;;;;5.22;3.30;;;;;;;;;;7309926;19;141743;-78
2023/07/30 08:14:14;;;;;;;7.18;3.17;;;;;;;;;;7308547;19;142597;-79
2023/07/30 08:16:41;;;;;;;4.50;3.28;;;;;;;;;;7309775;19;140660;-79
2023/07/30 08:19:08;;;;;;;4.45;2.45;;;;;;;;;;7307960;19;140544;-78
2023/07/30 08:21:35;;;;;;;6.78;2.42;;;;;;;;;;7308250;19;140649;-79
2023/07/30 08:24:03;;;;;;;5.47;2.40;;;;;;;;;;7307989;19;141004;-80
2023/07/30 08:26:31;;;;;;;4.38;2.17;;;;;;;;;;7310635;19;140511;-77
2023/07/30 08:28:58;;;;;;;4.05;2.40;;;;;;;;;;7309587;19;140655;-78
2023/07/30 08:31:27;;;;;;;3.17;2.10;;;;;;;;;;7310092;19;141135;-77
2023/07/30 08:33:57;;;;;;;6.18;2.50;;;;;;;;;;7315064;19;142017;-76
2023/07/30 08:36:24;;;;;;;5.68;2.20;;;;;;;;;;7315510;19;140967;-78
2023/07/30 08:38:50;;;;;;;6.45;2.30;;;;;;;;;;7316940;19;141696;-78
2023/07/30 08:41:19;;;;;;;5.25;2.20;;;;;;;;;;7313543;19;140800;-77
2023/07/30 08:43:48;;;;;;;7.22;2.40;;;;;;;;;;7315784;19;140861;-77
2023/07/30 08:46:16;;;;;;;4.77;2.30;;;;;;;;;;7315694;19;140359;-77
2023/07/30 08:48:46;;;;;;;5.57;2.45;;;;;;;;;;7316023;19;140220;-77
2023/07/30 08:51:17;;;;;;;3.47;2.45;;;;;;;;;;7314162;19;140657;-78
2023/07/30 08:53:44;;;;;;;4.00;2.58;;;;;;;;;;7314487;19;142654;-79
2023/07/30 08:56:11;;;;;;;7.75;2.83;;;;;;;;;;7314624;19;141812;-78
2023/07/30 08:58:39;;;;;;;6.30;2.92;;;;;;;;;;7316092;19;140390;-78
2023/07/30 09:01:10;;;;;;;5.80;2.85;;;;;;;;;;7315427;19;140335;-78
2023/07/30 09:03:38;;;;;;;7.97;3.78;;;;;;;;;;7316077;19;141676;-77
2023/07/30 09:06:06;;;;;;;13.15;4.32;;;;;;;;;;7316967;19;140624;-78
2023/07/30 09:08:33;;;;;;;10.25;3.10;;;;;;;;;;7317479;19;140538;-79
2023/07/30 09:11:07;;;;;;;8.10;3.70;;;;;;;;;;7314867;19;141654;-78
2023/07/30 09:13:38;;;;;;;8.15;3.70;;;;;;;;;;7312234;19;140818;-78
2023/07/30 09:16:13;;;;;;;7.50;3.60;;;;;;;;;;7314996;19;140676;-75
2023/07/30 09:18:44;;;;;;;9.05;3.35;;;;;;;;;;7314451;19;140705;-78
2023/07/30 09:21:13;;;;;;;10.05;3.85;;;;;;;;;;7316355;19;139992;-74
2023/07/30 09:23:45;;;;;;;6.57;3.17;;;;;;;;;;7315195;19;142029;-77
2023/07/30 09:26:13;;;;;;;6.90;3.47;;;;;;;;;;7313650;19;140465;-74
2023/07/30 09:28:40;;;;;;;6.55;3.30;;;;;;;;;;7312959;19;140963;-75
2023/07/30 09:31:08;;;;;;;7.18;3.50;;;;;;;;;;7313479;19;140392;-75
2023/07/30 09:33:42;;;;;;;7.07;3.10;;;;;;;;;;7312620;19;141631;-75
2023/07/30 09:36:09;;;;;;;7.68;3.03;;;;;;;;;;7311217;19;140617;-76
2023/07/30 09:38:39;;;;;;;6.35;2.47;;;;;;;;;;7312975;19;140858;-76
2023/07/30 09:41:06;;;;;;;5.80;2.80;;;;;;;;;;7307928;19;141339;-74
2023/07/30 09:43:33;;;;;;;6.32;2.60;;;;;;;;;;7311179;19;141988;-75
2023/07/30 09:46:06;;;;;;;6.30;2.35;;;;;;;;;;7312282;19;141288;-75
2023/07/30 09:48:35;;;;;;;7.45;2.50;;;;;;;;;;7311163;19;140607;-75
2023/07/30 09:51:02;;;;;;;5.40;2.30;;;;;;;;;;7311311;19;140887;-73
2023/07/30 09:53:35;;;;;;;;;;;;;;;;;;7311292;19;142435;-75
2023/07/30 09:56:05;;;;;;;9.52;3.10;;;;;;;;;;7311744;19;141479;-76
2023/07/30 09:58:36;;;;;;;6.15;2.35;;;;;;;;;;7312547;19;140445;-74
2023/07/30 10:01:04;;;;;;;6.45;2.63;;;;;;;;;;7311990;19;140653;-76
2023/07/30 10:03:33;;;;;;;6.38;3.05;;;;;;;;;;7310583;19;141880;-75
2023/07/30 10:06:03;;;;;;;7.85;2.83;;;;;;;;;;7309898;19;140864;-75
2023/07/30 10:08:35;;;;;;;4.70;2.05;;;;;;;;;;7311138;19;140742;-75
2023/07/30 10:11:04;;;;;;;4.15;2.53;;;;;;;;;;7310928;19;140646;-75
2023/07/30 10:13:32;;;;;;;4.55;2.55;;;;;;;;;;7311430;19;142869;-73
2023/07/30 10:15:59;;;;;;;8.27;3.35;;;;;;;;;;7308750;19;140326;-71
2023/07/30 10:18:39;;;;;;;6.40;2.63;;;;;;;;;;7310525;19;140379;-74
2023/07/30 10:21:07;;;;;;;6.40;2.88;;;;;;;;;;7308910;19;141357;-75
2023/07/30 10:23:35;;;;;;;4.13;2.30;;;;;;;;;;7311389;19;140745;-74
2023/07/30 10:26:11;;;;;;;7.78;2.63;;;;;;;;;;7310776;19;142906;-76
2023/07/30 10:28:43;;;;;;;4.97;2.40;;;;;;;;;;7312393;19;140675;-74
2023/07/30 10:31:13;;;;;;;4.47;2.53;;;;;;;;;;7311536;19;140465;-75
2023/07/30 10:33:45;;;;;;;4.68;2.28;;;;;;;;;;7311483;19;140764;-74
2023/07/30 10:36:13;;;;;;;6.20;2.58;;;;;;;;;;7308648;19;140730;-73
2023/07/30 10:38:41;;;;;;;4.78;2.30;;;;;;;;;;7310431;19;140536;-75
2023/07/30 10:41:18;;;;;;;6.88;2.38;;;;;;;;;;7306355;19;140518;-74
2023/07/30 10:43:47;;;;;;;6.40;2.60;;;;;;;;;;7309015;19;142033;-76
2023/07/30 10:46:15;;;;;;;5.30;2.53;;;;;;;;;;7310395;19;140631;-76
2023/07/30 10:48:44;;;;;;;3.95;2.35;;;;;;;;;;7313041;19;140726;-76
2023/07/30 10:51:12;;;;;;;4.53;2.30;;;;;;;;;;7310071;19;142066;-78
2023/07/30 10:53:46;;;;;;;7.40;2.42;;;;;;;;;;7311267;19;141858;-75
2023/07/30 10:56:13;;;;;;;5.57;2.40;;;;;;;;;;7308031;19;140163;-77
2023/07/30 10:58:42;;;;;;;7.80;2.40;;;;;;;;;;7312160;19;140672;-77
2023/07/30 11:01:09;;;;;;;7.82;2.78;;;;;;;;;;7311313;19;141590;-75
2023/07/30 11:03:38;;;;;;;5.45;2.30;;;;;;;;;;7311671;19;142556;-75
2023/07/30 11:06:18;;;;;;;4.60;2.45;;;;;;;;;;7311683;19;140603;-84
2023/07/30 11:08:53;;;;;;;3.40;1.90;;;;;;;;;;7309285;19;146127;-86
2023/07/30 11:11:21;;;;;;;6.53;2.42;;;;;;;;;;7310546;19;141214;-80
2023/07/30 11:13:48;;;;;;;5.65;2.50;;;;;;;;;;7311602;19;141121;-80
2023/07/30 11:16:16;;;;;;;5.60;2.60;;;;;;;;;;7311409;19;140553;-80
2023/07/30 11:18:48;;;;;;;5.93;2.05;;;;;;;;;;7310017;19;140446;-81
2023/07/30 11:21:16;;;;;;;13.15;2.60;;;;;;;;;;7310076;19;140590;-77
2023/07/30 11:23:44;;;;;;;6.53;2.75;;;;;;;;;;7312916;19;141436;-79
2023/07/30 11:26:18;;;;;;;6.32;2.40;;;;;;;;;;7310650;19;140692;-79
2023/07/30 11:28:49;;;;;;;4.45;2.00;;;;;;;;;;7311810;19;140514;-78
2023/07/30 11:31:19;;;;;;;5.97;2.22;;;;;;;;;;7312045;19;140552;-79
2023/07/30 11:33:47;;;;;;;6.28;2.17;;;;;;;;;;7310203;19;141756;-77
2023/07/30 11:36:27;;;;;;;8.02;2.40;;;;;;;;;;7313659;19;140231;-79
2023/07/30 11:39:02;;;;;;;5.78;2.38;;;;;;;;;;7310415;19;140330;-79
2023/07/30 11:44:32;;;;;;;8.52;2.17;;;;;;;;;;7309676;19;142662;-78
2023/07/30 11:46:59;;;;;;;6.22;2.20;;;;;;;;;;7309409;19;140480;-78
2023/07/30 11:49:36;;;;;;;13.68;5.45;;;;;;;;;;7308899;19;140732;-82
2023/07/30 11:52:12;;;;;;;19.80;6.43;;;;;;;;;;7308049;19;142564;-82
2023/07/30 11:54:52;;;;;;;46.67;15.93;;;;;;;;;;7308288;19;142568;-78
2023/07/30 12:00:20;;;;;;;54.05;26.15;;;;;;;;;;7311226;19;140233;-79
2023/07/30 12:02:47;;;;;;;46.67;24.03;;;;;;;;;;7310801;19;140530;-79
2023/07/30 12:05:16;;;;;;;43.25;20.13;;;;;;;;;;7307969;19;142064;-79
2023/07/30 12:07:47;;;;;;;23.00;11.88;;;;;;;;;;7309069;19;140531;-80
2023/07/30 12:10:14;;;;;;;;;;;;;;;;;;7311451;19;140846;-80
2023/07/30 12:12:53;;;;;;;13.02;5.20;;;;;;;;;;7307986;19;150719;-83
2023/07/30 12:18:42;;;;;;;24.27;9.50;;;;;;;;;;7307448;19;141811;-84
2023/07/30 12:21:11;;;;;;;21.33;9.98;;;;;;;;;;7307048;19;140589;-80
2023/07/30 12:23:38;;;;;;;25.48;9.77;;;;;;;;;;7307851;19;141374;-80
2023/07/30 12:26:06;;;;;;;11.55;5.90;;;;;;;;;;7310062;19;140847;-80
2023/07/30 12:28:39;;;;;;;16.98;7.70;;;;;;;;;;7309549;19;140142;-81
2023/07/30 12:31:19;;;;;;;19.17;7.68;;;;;;;;;;7310110;19;140696;-80
2023/07/30 12:33:49;;;;;;;16.17;6.88;;;;;;;;;;7307498;19;141031;-80
2023/07/30 12:36:17;;;;;;;13.77;6.55;;;;;;;;;;7307889;19;142284;-80
2023/07/30 12:38:45;;;;;;;17.95;6.38;;;;;;;;;;7308830;19;140810;-79
2023/07/30 12:41:27;;;;;;;13.23;5.15;;;;;;;;;;7309262;19;140565;-80
2023/07/30 12:43:56;;;;;;;12.57;5.00;;;;;;;;;;7308748;19;142495;-80
2023/07/30 12:46:24;;;;;;;11.82;5.03;;;;;;;;;;7307943;19;141891;-82
2023/07/30 12:48:51;;;;;;;4.97;2.20;;;;;;;;;;7308103;19;140396;-82
2023/07/30 12:51:18;;;;;;;7.15;3.15;;;;;;;;;;7307968;19;140689;-75
2023/07/30 12:53:45;;;;;;;8.20;3.60;;;;;;;;;;7309426;19;141253;-77
2023/07/30 12:56:14;;;;;;;6.53;2.95;;;;;;;;;;7309550;19;140506;-77
2023/07/30 12:58:41;;;;;;;15.32;4.65;;;;;;;;;;7308240;19;140759;-78
2023/07/30 13:01:08;;;;;;;9.23;3.58;;;;;;;;;;7310496;19;140534;-77
2023/07/30 13:03:36;;;;;;;7.15;3.15;;;;;;;;;;7309761;19;140926;-78
2023/07/30 13:06:03;;;;;;;7.50;2.97;;;;;;;;;;7312269;19;141389;-77
2023/07/30 13:08:30;;;;;;;5.10;2.83;;;;;;;;;;7307390;19;140620;-78
2023/07/30 13:10:57;;;;;;;9.25;3.55;;;;;;;;;;7308555;19;140751;-78
2023/07/30 13:13:37;;;;;;;4.78;2.42;;;;;;;;;;7305086;19;141305;-84
2023/07/30 13:16:07;;;;;;;6.82;2.33;;;;;;;;;;7307415;19;142104;-80
2023/07/30 13:18:35;;;;;;;4.93;2.40;;;;;;;;;;7307817;19;140664;-79
2023/07/30 13:21:03;;;;;;;5.00;2.45;;;;;;;;;;7314571;19;140918;-79
2023/07/30 13:23:31;;;;;;;6.30;2.60;;;;;;;;;;7316102;19;140436;-79
2023/07/30 13:25:58;;;;;;;7.65;3.30;;;;;;;;;;7313467;19;143230;-76
2023/07/30 13:28:25;;;;;;;6.47;2.60;;;;;;;;;;7316009;19;140239;-85
2023/07/30 13:30:53;;;;;;;7.15;2.78;;;;;;;;;;7316312;19;140612;-85
2023/07/30 13:33:21;;;;;;;6.10;2.30;;;;;;;;;;7314472;19;141130;-83
2023/07/30 13:35:48;;;;;;;5.50;2.40;;;;;;;;;;7316206;19;142090;-85
2023/07/30 13:38:15;;;;;;;6.05;2.33;;;;;;;;;;7316046;19;140371;-86
2023/07/30 13:40:43;;;;;;;6.20;2.20;;;;;;;;;;7318760;19;140499;-84
2023/07/30 13:43:10;;;;;;;7.72;2.38;;;;;;;;;;7314991;19;141120;-83
2023/07/30 13:45:37;;;;;;;6.78;2.60;;;;;;;;;;7316030;19;141154;-88
2023/07/30 13:48:05;;;;;;;4.32;2.15;;;;;;;;;;7316278;19;140287;-88
2023/07/30 13:50:32;;;;;;;4.90;2.40;;;;;;;;;;7315063;19;140778;-85
2023/07/30 13:52:59;;;;;;;4.05;2.40;;;;;;;;;;7315115;19;141101;-87
2023/07/30 13:55:26;;;;;;;4.28;2.42;;;;;;;;;;7315096;19;140697;-82
2023/07/30 13:57:53;;;;;;;4.72;2.22;;;;;;;;;;7315004;19;140324;-87
2023/07/30 14:00:20;;;;;;;5.60;2.28;;;;;;;;;;7315401;19;140423;-85
2023/07/30 14:02:48;;;;;;;5.43;2.90;;;;;;;;;;7315405;19;141421;-84
2023/07/30 14:05:15;;;;;;;5.22;2.80;;;;;;;;;;7312178;19;140947;-81
2023/07/30 14:07:42;;;;;;;5.63;2.53;;;;;;;;;;7311642;19;140433;-83
2023/07/30 14:10:09;;;;;;;3.67;2.00;;;;;;;;;;7313750;19;140420;-83
2023/07/30 14:12:37;;;;;;;4.40;1.80;;;;;;;;;;7313622;19;140563;-80
2023/07/30 14:15:04;;;;;;;4.72;2.03;;;;;;;;;;7312789;19;142016;-81
2023/07/30 14:17:31;;;;;;;6.22;2.22;;;;;;;;;;7313670;19;140612;-84
2023/07/30 14:19:58;;;;;;;6.75;1.95;;;;;;;;;;7316136;19;140579;-86
2023/07/30 14:22:28;;;;;;;7.90;2.30;;;;;;;;;;7315579;19;141147;-83
2023/07/30 14:24:56;;;;;;;6.43;2.28;;;;;;;;;;7317022;19;141986;-85
2023/07/30 14:27:24;;;;;;;5.22;1.83;;;;;;;;;;7315730;19;140544;-81
2023/07/30 14:29:52;;;;;;;21.02;8.30;;;;;;;;;;7310638;19;140601;-79
2023/07/30 14:32:20;;;;;;;6.28;2.10;;;;;;;;;;7314756;19;140471;-82
2023/07/30 14:34:47;;;;;;;7.22;3.30;;;;;;;;;;7312565;19;142125;-83
2023/07/30 14:37:14;;;;;;;5.75;2.30;;;;;;;;;;7315360;19;140637;-84
2023/07/30 14:39:41;;;;;;;3.78;1.70;;;;;;;;;;7319604;19;140234;-81
2023/07/30 14:42:08;;;;;;;5.60;2.55;;;;;;;;;;7318912;19;141406;-86
2023/07/30 14:44:36;;;;;;;7.25;2.35;;;;;;;;;;7319837;19;140654;-79
2023/07/30 14:47:04;;;;;;;7.03;2.03;;;;;;;;;;7315826;19;140028;-79
2023/07/30 14:49:31;;;;;;;5.05;2.13;;;;;;;;;;7314443;19;140534;-77
2023/07/30 14:51:59;;;;;;;4.78;2.13;;;;;;;;;;7312190;19;140498;-80
2023/07/30 14:54:26;;;;;;;6.53;2.30;;;;;;;;;;7312955;19;140450;-80
2023/07/30 14:56:55;;;;;;;5.15;2.30;;;;;;;;;;7312103;19;140955;-79
2023/07/30 14:59:22;;;;;;;8.85;2.05;;;;;;;;;;7313545;19;140768;-77
2023/07/30 15:01:49;;;;;;;7.28;2.13;;;;;;;;;;7313657;19;141374;-79
2023/07/30 15:04:16;;;;;;;6.00;2.55;;;;;;;;;;7311277;19;142354;-82
2023/07/30 15:06:43;;;;;;;6.43;2.38;;;;;;;;;;7310192;19;145629;-84
2023/07/30 15:09:11;;;;;;;4.88;2.10;;;;;;;;;;7312888;19;140431;-86
2023/07/30 15:11:38;;;;;;;7.50;2.20;;;;;;;;;;7312576;19;141589;-81
2023/07/30 15:14:05;;;;;;;4.78;2.20;;;;;;;;;;7309751;19;142048;-80
2023/07/30 15:16:32;;;;;;;10.05;2.58;;;;;;;;;;7310785;19;140630;-80